CheckWX is a tool to help pilots better visualize weather data.  It is not intended as a substitute for an official pre-flight weather briefing.

07:14:08 UTC

CYVO TAF
Val-D'or Airport
Val-D'or, Canada
TAF CYVO 230539Z 2306/2318 20005KT P6SM BKN040 TEMPO 2306/2318 6SM -SN BKN020 RMK FCST BASED ON AUTO OBS. NXT FCST BY 231200Z

Feb-23@
06:00 UTC

Feb-23 @ 06:00 UTC

Feb-23@
18:00 UTC

Feb-23 @ 18:00 UTC

TAF CYVO 230539Z 2306/2318 20005KT P6SM BKN040
Wind
  • 200° at 5 KTS
Cloud Levels
  • Broken at 4,000' AGL

Feb-23@
06:00 UTC

Feb-23 @ 06:00 UTC

Feb-23@
18:00 UTC

Feb-23 @ 18:00 UTC

TEMPO 2306/2318 6SM -SN BKN020 RMK FCST BASED ON AUTO OBS. NXT FCST BY 231200Z

Temporary

Temporary Changes expected for less than half the time period

Conditions
Light Snow
Cloud Levels
  • Broken at 2,000' AGL